Time;durP1;ratioP1;P1;durP2;ratioP2;P2;SDS_P1;SDS_P2;PMS_P1;PMS_P2;Temp;Humidity;BMP_temperature;BMP_pressure;BME280_temperature;BME280_humidity;BME280_pressure;Samples;Min_cycle;Max_cycle;Signal;HPM_P1;HPM_P2
2024/01/29 00:01:42;;;;;;;8.20;3.58;;;6.40;99.90;;;;;;5028981;28;20465;-69
2024/01/29 00:04:07;;;;;;;3.97;2.85;;;6.50;99.90;;;;;;5041951;28;20044;-68
2024/01/29 00:06:33;;;;;;;4.72;2.90;;;6.30;99.90;;;;;;5027478;28;20034;-69
2024/01/29 00:08:59;;;;;;;6.13;3.10;;;6.30;99.90;;;;;;5033251;28;20388;-67
2024/01/29 00:11:25;;;;;;;4.88;3.30;;;6.40;99.90;;;;;;5049541;28;20040;-68
2024/01/29 00:13:50;;;;;;;3.80;2.75;;;6.30;99.90;;;;;;5033209;28;20048;-68
2024/01/29 00:16:17;;;;;;;5.45;2.90;;;6.20;99.90;;;;;;5032919;28;20124;-68
2024/01/29 00:18:42;;;;;;;5.22;3.08;;;6.20;99.90;;;;;;5031856;28;20071;-67
2024/01/29 00:21:08;;;;;;;5.50;3.10;;;6.20;99.90;;;;;;5049693;28;20124;-69
2024/01/29 00:23:33;;;;;;;9.50;3.67;;;6.10;99.90;;;;;;5046074;28;20431;-69
2024/01/29 00:25:59;;;;;;;5.38;3.30;;;6.10;99.90;;;;;;5048594;28;20116;-69
2024/01/29 00:28:25;;;;;;;3.30;2.72;;;6.10;99.90;;;;;;5031555;28;20033;-69
2024/01/29 00:30:50;;;;;;;5.10;3.45;;;6.10;99.90;;;;;;5042064;28;20065;-67
2024/01/29 00:33:16;;;;;;;5.97;3.20;;;6.00;99.90;;;;;;5045088;28;20124;-69
2024/01/29 00:35:41;;;;;;;4.43;2.90;;;5.90;99.90;;;;;;5040558;28;20048;-68
2024/01/29 00:38:07;;;;;;;6.82;3.30;;;6.00;99.90;;;;;;5043653;28;20457;-68
2024/01/29 00:40:33;;;;;;;7.45;3.30;;;6.00;99.90;;;;;;5032556;28;20496;-67
2024/01/29 00:43:02;;;;;;;6.68;3.25;;;6.00;99.90;;;;;;5043327;28;20055;-68
2024/01/29 00:45:28;;;;;;;5.82;3.00;;;6.10;99.90;;;;;;5034623;28;20037;-68
2024/01/29 00:47:54;;;;;;;5.70;3.15;;;6.00;99.90;;;;;;5017834;28;20044;-67
2024/01/29 00:50:19;;;;;;;4.88;3.08;;;6.10;99.90;;;;;;5052388;28;20124;-68
2024/01/29 00:52:45;;;;;;;5.85;3.22;;;6.00;99.90;;;;;;5036089;28;20052;-68
2024/01/29 00:55:12;;;;;;;4.35;3.10;;;6.00;99.90;;;;;;5038964;28;20569;-67
2024/01/29 00:57:38;;;;;;;6.28;3.25;;;5.90;99.90;;;;;;5043703;28;20044;-67
2024/01/29 01:00:06;;;;;;;6.93;3.28;;;5.90;99.90;;;;;;5046811;28;20507;-68
2024/01/29 01:02:32;;;;;;;5.75;3.30;;;5.80;99.90;;;;;;5024986;28;20103;-68
2024/01/29 01:04:58;;;;;;;4.97;3.47;;;5.90;99.90;;;;;;5042018;28;20469;-69
2024/01/29 01:07:23;;;;;;;5.50;3.47;;;5.80;99.90;;;;;;5052697;28;20033;-69
2024/01/29 01:09:49;;;;;;;6.10;3.15;;;5.80;99.90;;;;;;5047978;28;20075;-68
2024/01/29 01:12:15;;;;;;;6.25;3.20;;;5.80;99.90;;;;;;5051581;28;20431;-69
2024/01/29 01:14:40;;;;;;;4.65;3.00;;;5.70;99.90;;;;;;5041910;28;20548;-69
2024/01/29 01:17:06;;;;;;;8.05;3.60;;;5.80;99.90;;;;;;5039053;28;20515;-68
2024/01/29 01:19:31;;;;;;;5.45;3.22;;;5.70;99.90;;;;;;5036922;28;20029;-68
2024/01/29 01:21:57;;;;;;;6.03;3.25;;;5.70;99.90;;;;;;5035195;28;20030;-68
2024/01/29 01:24:23;;;;;;;7.07;3.58;;;5.70;99.90;;;;;;5028409;28;20367;-66
2024/01/29 01:26:48;;;;;;;4.53;3.17;;;5.70;99.90;;;;;;5036937;28;20061;-67
2024/01/29 01:29:14;;;;;;;8.45;3.47;;;5.60;99.90;;;;;;5029456;28;20091;-67
2024/01/29 01:31:40;;;;;;;7.43;3.35;;;5.60;99.90;;;;;;5040146;28;20104;-68
2024/01/29 01:34:06;;;;;;;7.03;3.28;;;5.60;99.90;;;;;;5038650;28;20128;-68
2024/01/29 01:36:31;;;;;;;4.55;3.40;;;5.50;99.90;;;;;;5040890;28;20041;-67
2024/01/29 01:38:57;;;;;;;5.63;3.35;;;5.50;99.90;;;;;;5040697;28;20072;-67
2024/01/29 01:41:23;;;;;;;5.72;3.53;;;5.60;99.90;;;;;;5049153;28;20041;-68
2024/01/29 01:43:48;;;;;;;5.72;3.42;;;5.60;99.90;;;;;;5046716;28;20500;-68
2024/01/29 01:46:24;;;;;;;6.72;3.20;;;5.50;99.90;;;;;;5039523;28;20048;-67
2024/01/29 01:48:52;;;;;;;5.35;3.35;;;5.50;99.90;;;;;;5029278;28;20095;-68
2024/01/29 01:51:19;;;;;;;4.60;2.70;;;5.50;99.90;;;;;;5039273;28;20041;-69
2024/01/29 01:53:46;;;;;;;5.45;3.30;;;5.50;99.90;;;;;;5046812;28;20094;-69
2024/01/29 01:56:13;;;;;;;4.60;3.30;;;5.50;99.90;;;;;;5047489;28;20187;-69
2024/01/29 01:58:42;;;;;;;6.05;4.20;;;5.50;99.90;;;;;;5052285;28;20056;-68
2024/01/29 02:01:08;;;;;;;6.65;3.60;;;5.50;99.90;;;;;;5034764;28;20033;-67
2024/01/29 02:03:34;;;;;;;5.10;3.25;;;5.50;99.90;;;;;;5056873;28;20153;-68
2024/01/29 02:05:59;;;;;;;6.32;3.40;;;5.50;99.90;;;;;;5035808;28;20135;-69
2024/01/29 02:08:25;;;;;;;6.75;3.55;;;5.40;99.90;;;;;;5028045;28;20511;-67
2024/01/29 02:10:53;;;;;;;7.93;3.67;;;5.40;99.90;;;;;;5035545;28;20048;-69
2024/01/29 02:13:18;;;;;;;7.32;3.80;;;5.40;99.90;;;;;;5053688;28;20119;-69
2024/01/29 02:15:44;;;;;;;4.45;3.15;;;5.40;99.90;;;;;;5032565;28;20128;-69
2024/01/29 02:18:10;;;;;;;9.40;3.78;;;5.50;99.90;;;;;;5039882;28;20044;-68
2024/01/29 02:20:36;;;;;;;7.00;4.13;;;5.40;99.90;;;;;;5036441;28;20029;-67
2024/01/29 02:23:02;;;;;;;6.00;3.50;;;5.30;99.90;;;;;;5038650;28;20037;-67
2024/01/29 02:25:28;;;;;;;6.82;3.80;;;5.30;99.90;;;;;;5034608;28;20030;-68
2024/01/29 02:27:53;;;;;;;5.28;3.47;;;5.30;99.90;;;;;;5038029;28;20071;-69
2024/01/29 02:30:19;;;;;;;6.50;3.70;;;5.20;99.90;;;;;;5039705;28;20103;-68
2024/01/29 02:32:45;;;;;;;5.35;3.15;;;5.20;99.90;;;;;;5036553;28;20083;-67
2024/01/29 02:35:10;;;;;;;6.05;3.63;;;5.20;99.90;;;;;;5035653;28;20073;-67
2024/01/29 02:37:36;;;;;;;7.18;3.72;;;5.20;99.90;;;;;;5029985;28;20045;-66
2024/01/29 02:40:02;;;;;;;6.00;3.47;;;5.10;99.90;;;;;;5033708;28;20045;-68
2024/01/29 02:42:28;;;;;;;6.15;3.58;;;5.10;99.90;;;;;;5041995;28;20102;-67
2024/01/29 02:44:54;;;;;;;6.30;3.67;;;5.20;99.90;;;;;;5046013;28;20041;-68
2024/01/29 02:47:19;;;;;;;5.13;3.38;;;5.20;99.90;;;;;;5042783;28;20470;-67
2024/01/29 02:49:45;;;;;;;7.07;3.97;;;5.20;99.90;;;;;;5031544;28;20120;-67
2024/01/29 02:52:11;;;;;;;8.20;3.70;;;5.10;99.90;;;;;;5045743;28;20068;-68
2024/01/29 02:54:36;;;;;;;4.68;3.35;;;5.00;99.90;;;;;;5021034;28;20107;-67
2024/01/29 02:57:05;;;;;;;9.05;3.75;;;4.90;99.90;;;;;;5030020;28;20355;-67
2024/01/29 02:59:32;;;;;;;8.77;3.92;;;4.80;99.90;;;;;;5031275;28;20485;-69
2024/01/29 03:01:58;;;;;;;6.50;4.38;;;4.80;99.90;;;;;;5021683;28;20048;-68
2024/01/29 03:04:24;;;;;;;5.28;3.38;;;4.80;99.90;;;;;;5036533;28;20033;-67
2024/01/29 03:06:50;;;;;;;7.00;3.53;;;4.80;99.90;;;;;;5029047;28;20091;-69
2024/01/29 03:09:15;;;;;;;4.60;3.20;;;4.80;99.90;;;;;;5041584;28;20040;-68
2024/01/29 03:11:41;;;;;;;5.43;3.80;;;4.70;99.90;;;;;;5030837;28;20053;-68
2024/01/29 03:14:08;;;;;;;7.07;4.07;;;4.60;99.90;;;;;;5025812;28;20204;-67
2024/01/29 03:16:34;;;;;;;7.47;3.97;;;4.60;99.90;;;;;;5025631;28;20037;-68
2024/01/29 03:18:59;;;;;;;6.70;4.13;;;4.50;99.90;;;;;;5036292;28;20381;-68
2024/01/29 03:21:27;;;;;;;7.38;4.13;;;4.50;99.90;;;;;;5028915;28;20034;-67
2024/01/29 03:23:53;;;;;;;8.77;3.70;;;4.40;99.90;;;;;;5035579;28;20876;-67
2024/01/29 03:26:19;;;;;;;7.38;3.40;;;4.50;99.90;;;;;;5040259;28;20408;-68
2024/01/29 03:28:45;;;;;;;6.43;3.58;;;4.50;99.90;;;;;;5029725;28;20037;-67
2024/01/29 03:31:10;;;;;;;7.38;4.38;;;4.50;99.90;;;;;;5040434;28;20048;-68
2024/01/29 03:33:36;;;;;;;6.53;3.97;;;4.40;99.90;;;;;;5015337;28;20116;-67
2024/01/29 03:36:06;;;;;;;5.60;3.58;;;4.40;99.90;;;;;;5038706;28;20511;-68
2024/01/29 03:38:32;;;;;;;6.03;3.85;;;4.50;99.90;;;;;;5042871;28;20060;-68
2024/01/29 03:40:58;;;;;;;6.40;3.63;;;4.40;99.90;;;;;;5033323;28;20065;-68
2024/01/29 03:43:24;;;;;;;7.32;3.95;;;4.40;99.90;;;;;;5047427;28;20048;-69
2024/01/29 03:45:51;;;;;;;5.30;3.67;;;4.40;99.90;;;;;;5039622;28;20421;-67
2024/01/29 03:48:17;;;;;;;8.45;3.85;;;4.40;99.90;;;;;;5042473;28;20056;-67
2024/01/29 03:50:43;;;;;;;5.65;3.50;;;4.50;99.90;;;;;;5043828;28;20037;-68
2024/01/29 03:53:10;;;;;;;7.10;4.10;;;4.50;99.90;;;;;;5037201;28;20075;-68
2024/01/29 03:55:36;;;;;;;6.03;3.88;;;4.40;99.90;;;;;;5037398;28;20381;-68
2024/01/29 03:58:01;;;;;;;7.35;3.78;;;4.50;99.90;;;;;;5030460;28;20151;-67
2024/01/29 04:00:29;;;;;;;10.60;4.30;;;4.60;99.90;;;;;;5035186;28;20033;-66
2024/01/29 04:02:55;;;;;;;5.57;3.90;;;4.50;99.90;;;;;;5035185;28;20033;-67
2024/01/29 04:05:20;;;;;;;7.78;3.83;;;4.50;99.90;;;;;;5039995;28;20456;-68
2024/01/29 04:07:46;;;;;;;5.88;4.07;;;4.60;99.90;;;;;;5040746;28;20052;-68
2024/01/29 04:10:12;;;;;;;7.65;3.90;;;4.50;99.90;;;;;;5020948;28;20083;-67
2024/01/29 04:12:37;;;;;;;6.85;4.13;;;4.50;99.90;;;;;;5032238;28;20665;-68
2024/01/29 04:15:04;;;;;;;9.80;4.60;;;4.50;99.90;;;;;;5036685;28;20048;-67
2024/01/29 04:17:29;;;;;;;7.10;4.20;;;4.40;99.90;;;;;;5042904;28;20884;-68
2024/01/29 04:19:55;;;;;;;8.60;3.95;;;4.50;99.90;;;;;;5038463;28;20045;-68
2024/01/29 04:22:21;;;;;;;6.30;3.90;;;4.30;99.90;;;;;;5047446;28;20033;-70
2024/01/29 04:24:46;;;;;;;6.32;3.90;;;4.30;99.90;;;;;;5039793;28;20049;-68
2024/01/29 04:27:12;;;;;;;6.78;4.20;;;4.30;99.90;;;;;;5055258;28;20111;-68
2024/01/29 04:29:38;;;;;;;6.57;4.38;;;4.40;99.90;;;;;;5045464;28;20044;-68
2024/01/29 04:32:04;;;;;;;6.65;3.83;;;4.30;99.90;;;;;;5037881;28;20037;-68
2024/01/29 04:34:30;;;;;;;6.75;4.28;;;4.40;99.90;;;;;;5038935;28;20040;-68
2024/01/29 04:36:56;;;;;;;6.80;3.85;;;4.40;99.90;;;;;;5023579;28;20038;-67
2024/01/29 04:39:21;;;;;;;5.63;4.25;;;4.30;99.90;;;;;;5053435;28;20040;-68
2024/01/29 04:41:47;;;;;;;7.93;4.35;;;4.30;99.90;;;;;;5035302;28;20112;-68
2024/01/29 04:44:14;;;;;;;6.53;4.57;;;4.40;99.90;;;;;;5039095;28;20106;-67
2024/01/29 04:46:40;;;;;;;7.15;4.30;;;4.40;99.90;;;;;;5041906;28;20072;-68
2024/01/29 04:49:06;;;;;;;7.97;4.32;;;4.40;99.90;;;;;;5050922;28;20068;-68
2024/01/29 04:51:32;;;;;;;8.32;4.50;;;4.50;99.90;;;;;;5047593;28;20055;-68
2024/01/29 04:53:58;;;;;;;6.32;4.03;;;4.50;99.90;;;;;;5035692;28;20045;-69
2024/01/29 04:56:23;;;;;;;7.13;4.40;;;4.50;99.90;;;;;;5033307;28;20068;-68
2024/01/29 04:58:49;;;;;;;6.78;3.83;;;4.60;99.90;;;;;;5045175;28;20132;-68
2024/01/29 05:01:14;;;;;;;5.68;4.18;;;4.60;99.90;;;;;;5035837;28;20120;-67
2024/01/29 05:03:40;;;;;;;7.93;4.75;;;4.70;99.90;;;;;;5038304;28;20049;-68
2024/01/29 05:06:06;;;;;;;6.18;3.72;;;4.70;99.90;;;;;;5041869;28;20033;-68
2024/01/29 05:08:31;;;;;;;5.90;4.07;;;4.60;99.90;;;;;;5040198;28;20132;-67
2024/01/29 05:10:57;;;;;;;7.10;4.40;;;4.70;99.90;;;;;;5036729;28;20323;-67
2024/01/29 05:13:23;;;;;;;6.45;4.30;;;4.70;99.90;;;;;;5040023;28;20481;-68
2024/01/29 05:15:48;;;;;;;6.38;4.03;;;4.70;99.90;;;;;;5036691;28;20048;-68
2024/01/29 05:18:14;;;;;;;7.55;4.53;;;4.70;99.90;;;;;;5013533;28;20041;-68
2024/01/29 05:20:40;;;;;;;6.90;4.15;;;4.60;99.90;;;;;;5039441;28;20041;-68
2024/01/29 05:23:05;;;;;;;10.63;4.82;;;4.60;99.90;;;;;;5055282;28;20112;-69
2024/01/29 05:25:32;;;;;;;7.13;4.47;;;4.60;99.90;;;;;;5048385;28;20443;-68
2024/01/29 05:27:57;;;;;;;7.15;4.68;;;4.60;99.90;;;;;;5029965;28;20044;-68
2024/01/29 05:30:24;;;;;;;7.63;4.50;;;4.50;99.90;;;;;;5040853;28;20615;-68
2024/01/29 05:32:49;;;;;;;6.03;4.28;;;4.50;99.90;;;;;;5038364;28;20051;-68
2024/01/29 05:35:15;;;;;;;8.85;4.30;;;4.50;99.90;;;;;;5047083;28;20465;-68
2024/01/29 05:37:41;;;;;;;9.13;4.90;;;4.50;99.90;;;;;;5042766;28;20049;-68
2024/01/29 05:40:09;;;;;;;9.55;4.53;;;4.50;99.90;;;;;;5026843;28;20144;-66
2024/01/29 05:42:35;;;;;;;8.73;4.88;;;4.40;99.90;;;;;;5046505;28;20045;-68
2024/01/29 05:45:01;;;;;;;7.88;4.90;;;4.50;99.90;;;;;;5017119;28;20041;-68
2024/01/29 05:47:26;;;;;;;8.65;4.57;;;4.40;99.90;;;;;;5026580;28;20045;-69
2024/01/29 05:49:52;;;;;;;6.47;4.47;;;4.30;99.90;;;;;;5025003;28;20063;-68
2024/01/29 05:52:18;;;;;;;7.30;4.20;;;4.40;99.90;;;;;;5038318;28;20398;-68
2024/01/29 05:54:43;;;;;;;8.43;4.55;;;4.40;99.90;;;;;;5037647;28;20385;-67
2024/01/29 05:57:12;;;;;;;5.90;4.20;;;4.40;99.90;;;;;;5043194;28;20037;-67
2024/01/29 05:59:39;;;;;;;6.95;4.47;;;4.40;99.90;;;;;;5034405;28;20039;-68
2024/01/29 06:02:05;;;;;;;5.57;4.30;;;4.40;99.90;;;;;;5043212;28;20037;-68
2024/01/29 06:04:30;;;;;;;8.07;4.90;;;4.40;99.90;;;;;;5031030;28;20084;-68
2024/01/29 06:06:56;;;;;;;9.57;4.72;;;4.30;99.90;;;;;;5046516;28;20035;-68
2024/01/29 06:09:22;;;;;;;6.28;4.45;;;4.30;99.90;;;;;;5042245;28;20041;-68
2024/01/29 06:11:51;;;;;;;9.05;4.55;;;4.40;99.90;;;;;;5030848;28;20036;-68
2024/01/29 06:14:17;;;;;;;7.00;4.90;;;4.40;99.90;;;;;;5039091;28;20555;-68
2024/01/29 06:16:44;;;;;;;6.90;4.57;;;4.50;99.90;;;;;;5013262;28;20064;-67
2024/01/29 06:19:17;;;;;;;7.90;4.70;;;4.40;99.90;;;;;;5027781;28;20086;-68
2024/01/29 06:21:46;;;;;;;5.90;4.32;;;4.50;99.90;;;;;;5033574;28;20087;-68
2024/01/29 06:24:12;;;;;;;7.80;4.85;;;4.50;99.90;;;;;;5039675;28;20045;-68
2024/01/29 06:26:37;;;;;;;6.55;4.47;;;4.50;99.90;;;;;;5030337;28;20052;-68
2024/01/29 06:29:04;;;;;;;7.75;4.60;;;4.40;99.90;;;;;;5023352;28;20045;-69
2024/01/29 06:31:30;;;;;;;6.63;4.35;;;4.40;99.90;;;;;;5040740;28;20091;-67
2024/01/29 06:33:56;;;;;;;8.48;5.18;;;4.40;99.90;;;;;;5041047;28;20049;-68
2024/01/29 06:36:22;;;;;;;6.95;4.43;;;4.30;99.90;;;;;;5044769;28;20052;-68
2024/01/29 06:38:48;;;;;;;7.30;4.53;;;4.40;99.90;;;;;;5033060;28;20346;-69
2024/01/29 06:41:23;;;;;;;8.70;4.60;;;4.40;99.90;;;;;;5020960;28;20037;-69
2024/01/29 06:43:54;;;;;;;6.03;4.35;;;4.30;99.90;;;;;;5037656;28;20127;-68
2024/01/29 06:46:19;;;;;;;;;;;4.40;99.90;;;;;;5035347;28;20029;-69
2024/01/29 06:48:45;;;;;;;7.93;4.53;;;4.30;99.90;;;;;;5044245;28;19946;-67
2024/01/29 06:51:11;;;;;;;9.43;4.75;;;4.30;99.90;;;;;;5039479;28;20051;-68
2024/01/29 06:53:37;;;;;;;7.03;4.43;;;4.30;99.90;;;;;;5029451;28;20041;-67
2024/01/29 06:56:04;;;;;;;7.28;4.65;;;4.20;99.90;;;;;;5039207;28;20049;-68
2024/01/29 06:58:37;;;;;;;6.53;5.07;;;4.20;99.90;;;;;;5040636;28;20415;-67
2024/01/29 07:01:04;;;;;;;9.30;5.10;;;4.30;99.90;;;;;;5041114;28;20085;-68
2024/01/29 07:03:29;;;;;;;7.28;5.10;;;4.20;99.90;;;;;;5046929;28;20052;-67
2024/01/29 07:05:57;;;;;;;8.02;5.18;;;4.20;99.90;;;;;;5041890;28;20426;-67
2024/01/29 07:08:22;;;;;;;10.57;6.40;;;4.20;99.90;;;;;;5036482;28;20558;-68
2024/01/29 07:10:48;;;;;;;8.15;4.53;;;4.20;99.90;;;;;;5023734;28;20119;-68
2024/01/29 07:13:14;;;;;;;8.60;4.88;;;4.20;99.90;;;;;;5042589;28;20091;-67
2024/01/29 07:15:41;;;;;;;8.98;5.30;;;4.20;99.90;;;;;;5038816;28;20041;-68
2024/01/29 07:18:06;;;;;;;10.15;5.20;;;4.30;99.90;;;;;;5046608;28;20037;-67
2024/01/29 07:20:38;;;;;;;9.73;4.53;;;4.20;99.90;;;;;;5043188;28;20412;-68
2024/01/29 07:23:08;;;;;;;7.93;5.05;;;4.20;99.90;;;;;;5047775;28;20571;-67
2024/01/29 07:25:40;;;;;;;10.57;5.47;;;4.30;99.90;;;;;;5048910;28;20040;-67
2024/01/29 07:28:06;;;;;;;9.88;5.57;;;4.30;99.90;;;;;;5051138;28;20041;-67
2024/01/29 07:30:32;;;;;;;7.13;4.93;;;4.30;99.90;;;;;;5048989;28;20044;-68
2024/01/29 07:32:58;;;;;;;8.30;4.90;;;4.30;99.90;;;;;;5046732;28;20160;-68
2024/01/29 07:35:25;;;;;;;10.85;5.45;;;4.20;99.90;;;;;;5053549;28;20079;-69
2024/01/29 07:37:52;;;;;;;7.93;5.32;;;4.30;99.90;;;;;;5044584;28;20129;-68
2024/01/29 07:40:19;;;;;;;8.90;5.05;;;4.30;99.90;;;;;;5041655;28;20053;-66
2024/01/29 07:42:45;;;;;;;8.48;5.13;;;4.20;99.90;;;;;;5055290;28;20121;-67
2024/01/29 07:45:11;;;;;;;8.10;5.22;;;4.30;99.90;;;;;;5058449;28;20033;-68
2024/01/29 07:47:36;;;;;;;8.13;5.18;;;4.20;99.90;;;;;;5039617;28;20051;-67
2024/01/29 07:50:02;;;;;;;8.75;4.95;;;4.20;99.90;;;;;;5034203;28;20029;-68
2024/01/29 07:52:28;;;;;;;10.73;5.68;;;4.30;99.90;;;;;;5032474;28;20398;-68
2024/01/29 07:54:53;;;;;;;9.05;5.07;;;4.20;99.90;;;;;;5038229;28;20060;-67
2024/01/29 07:57:19;;;;;;;8.80;5.22;;;4.30;99.90;;;;;;5043147;28;20037;-67
2024/01/29 07:59:47;;;;;;;8.98;5.38;;;4.30;99.90;;;;;;5052045;28;20040;-68
2024/01/29 08:02:13;;;;;;;9.15;5.35;;;4.30;99.90;;;;;;5034804;28;20469;-69
2024/01/29 08:04:39;;;;;;;7.75;5.35;;;4.40;99.90;;;;;;5051823;28;20060;-68
2024/01/29 08:07:05;;;;;;;7.28;5.63;;;4.40;99.90;;;;;;5050304;28;20036;-68
2024/01/29 08:09:30;;;;;;;7.32;5.30;;;4.40;99.90;;;;;;5031393;28;20033;-68
2024/01/29 08:11:56;;;;;;;7.72;5.28;;;4.50;99.90;;;;;;5051999;28;20041;-68
2024/01/29 08:14:22;;;;;;;10.02;5.85;;;4.60;99.90;;;;;;5052336;28;20037;-68
2024/01/29 08:16:48;;;;;;;13.65;5.82;;;4.60;99.90;;;;;;5050766;28;20048;-68
2024/01/29 08:19:13;;;;;;;7.80;5.03;;;4.60;99.90;;;;;;5049468;28;20049;-68
2024/01/29 08:21:39;;;;;;;10.45;5.57;;;4.70;99.90;;;;;;5047820;28;20481;-68
2024/01/29 08:24:05;;;;;;;8.10;5.32;;;4.70;99.90;;;;;;5028091;28;20049;-68
2024/01/29 08:26:31;;;;;;;9.57;5.82;;;4.70;99.90;;;;;;5036899;28;20075;-67
2024/01/29 08:28:57;;;;;;;8.45;5.38;;;4.70;99.90;;;;;;5059987;28;20073;-68
2024/01/29 08:31:23;;;;;;;8.98;5.85;;;4.80;99.90;;;;;;5044423;28;20136;-68
2024/01/29 08:33:49;;;;;;;7.68;5.47;;;4.90;99.90;;;;;;5033123;28;20145;-67
2024/01/29 08:36:15;;;;;;;10.13;5.70;;;5.00;99.90;;;;;;5034422;28;20485;-67
2024/01/29 08:38:42;;;;;;;10.05;5.53;;;5.10;99.90;;;;;;5043511;28;20045;-67
2024/01/29 08:41:08;;;;;;;7.82;5.28;;;5.20;99.90;;;;;;5033868;28;20577;-67
2024/01/29 08:43:34;;;;;;;9.13;5.95;;;5.40;99.90;;;;;;5051715;28;20541;-68
2024/01/29 08:46:00;;;;;;;8.20;5.57;;;5.50;99.90;;;;;;5048799;28;20211;-67
2024/01/29 08:48:26;;;;;;;12.00;5.80;;;5.60;99.90;;;;;;5033456;28;20125;-69
2024/01/29 08:50:51;;;;;;;9.40;6.47;;;5.70;99.90;;;;;;5050928;28;20124;-67
2024/01/29 08:53:17;;;;;;;10.27;6.03;;;5.70;99.90;;;;;;5050466;28;20037;-68
2024/01/29 08:55:43;;;;;;;10.48;5.50;;;5.80;99.90;;;;;;5047840;28;20094;-67
2024/01/29 08:58:08;;;;;;;13.02;5.70;;;5.90;99.90;;;;;;5049892;28;20047;-67
2024/01/29 09:00:34;;;;;;;11.82;5.93;;;6.00;99.90;;;;;;5050127;28;20123;-67
2024/01/29 09:02:59;;;;;;;8.50;5.40;;;6.00;99.90;;;;;;5046350;28;20037;-68
2024/01/29 09:05:25;;;;;;;10.63;6.50;;;6.10;99.90;;;;;;5053484;28;20036;-68
2024/01/29 09:07:52;;;;;;;8.95;5.93;;;6.10;99.90;;;;;;5051479;28;20921;-67
2024/01/29 09:10:17;;;;;;;7.47;5.40;;;6.10;99.90;;;;;;5050055;28;20136;-67
2024/01/29 09:12:43;;;;;;;10.77;5.68;;;6.20;99.90;;;;;;5051497;28;20564;-67
2024/01/29 09:15:09;;;;;;;11.23;6.47;;;6.20;99.90;;;;;;5051464;28;20128;-67
2024/01/29 09:17:36;;;;;;;10.50;6.60;;;6.30;99.90;;;;;;5044288;28;20164;-67
2024/01/29 09:20:06;;;;;;;12.13;6.32;;;6.30;99.90;;;;;;5046461;28;20033;-67
2024/01/29 09:22:32;;;;;;;8.52;6.00;;;6.30;99.90;;;;;;5042181;28;20116;-67
2024/01/29 09:24:58;;;;;;;11.55;6.65;;;6.40;99.90;;;;;;5048202;28;20119;-66
2024/01/29 09:27:23;;;;;;;10.02;6.28;;;6.50;99.90;;;;;;5034514;28;20056;-67
2024/01/29 09:29:49;;;;;;;11.07;6.18;;;6.60;99.90;;;;;;5050593;28;20450;-67
2024/01/29 09:32:15;;;;;;;10.50;6.32;;;6.70;99.90;;;;;;5050951;28;20131;-68
2024/01/29 09:34:41;;;;;;;11.48;6.63;;;6.80;99.90;;;;;;5049360;28;20041;-69
2024/01/29 09:37:06;;;;;;;7.90;6.15;;;6.90;99.90;;;;;;5046309;28;20040;-67
2024/01/29 09:39:33;;;;;;;10.98;6.35;;;6.90;99.90;;;;;;5046803;28;20118;-68
2024/01/29 09:42:04;;;;;;;10.32;6.38;;;7.00;99.90;;;;;;5049669;28;20065;-68
2024/01/29 09:44:39;;;;;;;9.90;6.43;;;7.10;99.90;;;;;;5049678;28;20113;-68
2024/01/29 09:47:08;;;;;;;11.15;6.43;;;7.30;99.90;;;;;;5048654;28;20116;-68
2024/01/29 09:49:35;;;;;;;8.63;7.15;;;7.30;99.90;;;;;;5033145;28;20080;-68
2024/01/29 09:52:08;;;;;;;13.15;7.35;;;7.30;99.90;;;;;;5051215;28;20052;-68
2024/01/29 09:54:34;;;;;;;11.02;6.95;;;7.50;99.90;;;;;;5046285;28;20044;-68
2024/01/29 09:56:59;;;;;;;12.55;6.65;;;7.50;99.90;;;;;;5046714;28;20036;-67
2024/01/29 09:59:25;;;;;;;10.95;6.95;;;7.60;99.90;;;;;;5051824;28;20037;-68
2024/01/29 10:01:51;;;;;;;13.27;7.32;;;7.60;99.90;;;;;;5038128;28;20044;-68
2024/01/29 10:04:18;;;;;;;13.60;7.28;;;7.60;99.90;;;;;;5047682;28;20423;-68
2024/01/29 10:06:43;;;;;;;12.02;7.70;;;7.70;99.90;;;;;;5048494;28;20159;-68
2024/01/29 10:09:10;;;;;;;12.85;7.55;;;7.80;99.90;;;;;;5044744;28;20090;-68
2024/01/29 10:11:37;;;;;;;11.00;7.45;;;7.90;99.90;;;;;;5064321;28;20044;-68
2024/01/29 10:14:03;;;;;;;13.63;7.60;;;7.70;99.90;;;;;;5070909;28;20410;-69
2024/01/29 10:16:28;;;;;;;11.93;7.65;;;7.90;99.90;;;;;;5053524;28;20119;-68
2024/01/29 10:19:02;;;;;;;12.73;8.13;;;8.00;99.90;;;;;;5048200;28;20045;-69
2024/01/29 10:21:32;;;;;;;11.13;7.43;;;8.00;99.90;;;;;;5051865;28;20042;-68
2024/01/29 10:23:58;;;;;;;13.25;7.25;;;8.10;99.90;;;;;;5066937;28;20040;-68
2024/01/29 10:26:25;;;;;;;13.52;8.10;;;8.00;99.90;;;;;;5056618;28;20033;-68
2024/01/29 10:29:03;;;;;;;10.85;7.72;;;8.10;99.90;;;;;;5044750;28;20041;-68
2024/01/29 10:31:29;;;;;;;19.73;8.25;;;8.00;99.90;;;;;;5048520;28;20052;-68
2024/01/29 10:33:56;;;;;;;13.18;8.23;;;8.10;99.90;;;;;;5047281;28;20126;-69
2024/01/29 10:36:22;;;;;;;17.15;7.85;;;8.10;99.90;;;;;;5034792;28;20043;-69
2024/01/29 10:38:48;;;;;;;11.32;7.65;;;8.00;99.90;;;;;;5029385;28;20314;-68
2024/01/29 10:41:25;;;;;;;13.23;8.32;;;8.10;99.90;;;;;;5049785;28;20438;-68
2024/01/29 10:43:51;;;;;;;12.32;7.75;;;8.10;99.90;;;;;;5038200;28;20104;-69
2024/01/29 10:46:19;;;;;;;10.73;7.60;;;8.20;99.90;;;;;;5037429;28;20446;-69
2024/01/29 10:48:46;;;;;;;12.88;8.10;;;8.30;99.90;;;;;;5044512;28;20091;-68
2024/01/29 10:51:16;;;;;;;14.02;8.32;;;8.20;99.90;;;;;;5049382;28;20625;-69
2024/01/29 10:53:43;;;;;;;14.48;8.65;;;8.20;99.90;;;;;;5044599;28;20045;-69
2024/01/29 10:56:09;;;;;;;15.13;8.65;;;8.30;99.90;;;;;;5022735;28;20037;-69
2024/01/29 10:58:36;;;;;;;9.75;7.50;;;8.30;99.90;;;;;;5044653;28;20048;-69
2024/01/29 11:01:04;;;;;;;15.45;8.77;;;8.20;99.90;;;;;;5041706;28;20041;-70
2024/01/29 11:03:30;;;;;;;14.70;8.93;;;8.30;99.90;;;;;;5034251;28;20125;-70
2024/01/29 11:06:04;;;;;;;13.90;8.25;;;8.30;99.90;;;;;;5029392;28;20044;-70
2024/01/29 11:08:33;;;;;;;15.18;8.55;;;8.40;99.90;;;;;;5033891;28;20040;-69
2024/01/29 11:11:00;;;;;;;14.10;9.17;;;8.40;99.90;;;;;;5048559;28;20485;-73
2024/01/29 11:13:28;;;;;;;15.30;8.70;;;8.30;99.90;;;;;;5047221;28;20438;-71
2024/01/29 11:15:53;;;;;;;14.88;8.40;;;8.30;99.90;;;;;;5049109;28;20045;-69
2024/01/29 11:18:20;;;;;;;11.73;8.20;;;8.50;99.90;;;;;;5049387;28;20041;-70
2024/01/29 11:20:49;;;;;;;14.38;8.73;;;8.60;99.90;;;;;;5052722;28;20063;-70
2024/01/29 11:23:15;;;;;;;15.55;8.88;;;8.70;99.90;;;;;;5043431;28;20513;-71
2024/01/29 11:25:40;;;;;;;13.65;9.10;;;8.80;99.90;;;;;;5029564;28;20073;-69
2024/01/29 11:28:10;;;;;;;15.75;9.10;;;8.90;99.90;;;;;;5030561;28;20442;-70
2024/01/29 11:30:39;;;;;;;13.95;8.32;;;8.90;99.90;;;;;;5047207;28;20455;-71
2024/01/29 11:33:14;;;;;;;17.88;9.15;;;9.00;99.90;;;;;;5021351;28;20061;-69
2024/01/29 11:35:40;;;;;;;14.25;9.18;;;9.10;99.90;;;;;;5051900;28;20053;-70
2024/01/29 11:38:08;;;;;;;14.05;8.73;;;9.20;99.90;;;;;;5039030;28;20049;-69
2024/01/29 11:40:36;;;;;;;16.27;8.95;;;9.20;99.90;;;;;;5048975;28;20041;-70
2024/01/29 11:43:08;;;;;;;13.07;8.48;;;9.40;99.90;;;;;;5046807;28;20041;-70
2024/01/29 11:45:36;;;;;;;14.57;8.63;;;9.40;99.90;;;;;;5022610;28;20057;-70
2024/01/29 11:48:02;;;;;;;13.50;8.93;;;9.40;99.90;;;;;;5013210;28;20077;-69
2024/01/29 11:50:28;;;;;;;15.00;9.18;;;9.50;99.90;;;;;;5029944;28;20053;-70
2024/01/29 11:52:54;;;;;;;15.13;8.73;;;9.50;99.90;;;;;;5033651;28;20050;-69
2024/01/29 11:55:22;;;;;;;16.50;9.32;;;9.60;99.90;;;;;;5045316;28;20053;-70
2024/01/29 11:57:52;;;;;;;14.45;8.70;;;9.50;99.90;;;;;;5030434;28;20037;-70
2024/01/29 12:00:19;;;;;;;15.45;9.23;;;9.50;99.90;;;;;;5033399;28;20041;-70
2024/01/29 12:02:50;;;;;;;18.23;10.55;;;9.60;99.90;;;;;;5036396;28;20090;-72
2024/01/29 12:05:16;;;;;;;;;;;9.60;99.90;;;;;;5044375;28;20037;-69
2024/01/29 12:07:42;;;;;;;18.23;8.95;;;9.70;99.90;;;;;;5032692;28;19981;-69
2024/01/29 12:10:09;;;;;;;13.32;9.30;;;9.70;99.90;;;;;;5047259;28;20040;-71
2024/01/29 12:12:35;;;;;;;16.17;10.27;;;9.80;99.90;;;;;;5052095;28;20044;-70
2024/01/29 12:15:00;;;;;;;14.50;9.57;;;9.70;99.90;;;;;;5053312;28;20044;-70
2024/01/29 12:17:27;;;;;;;15.30;9.07;;;9.70;99.90;;;;;;5037992;28;20041;-70
2024/01/29 12:19:53;;;;;;;15.02;9.38;;;9.70;99.90;;;;;;5059855;28;20073;-70
2024/01/29 12:22:19;;;;;;;13.38;9.85;;;9.80;99.90;;;;;;5046970;28;20073;-70
2024/01/29 12:24:45;;;;;;;15.35;8.85;;;9.70;99.90;;;;;;5024430;28;20059;-69
2024/01/29 12:27:13;;;;;;;15.23;9.98;;;9.80;99.90;;;;;;5048524;28;20045;-70
2024/01/29 12:29:39;;;;;;;16.35;9.23;;;9.80;99.90;;;;;;5035092;28;20488;-70
2024/01/29 12:32:09;;;;;;;19.40;9.88;;;9.80;99.90;;;;;;5048830;28;20048;-70
2024/01/29 12:34:44;;;;;;;21.33;10.87;;;9.70;99.90;;;;;;5043632;28;20121;-69
2024/01/29 12:37:21;;;;;;;21.83;11.70;;;9.80;99.90;;;;;;5049440;28;20049;-69
2024/01/29 12:39:54;;;;;;;20.08;10.52;;;9.80;99.90;;;;;;5029945;28;20167;-70
2024/01/29 12:42:24;;;;;;;18.55;10.30;;;9.90;99.90;;;;;;5028838;28;20032;-70
2024/01/29 12:44:51;;;;;;;20.90;11.23;;;9.80;99.90;;;;;;5046783;28;20041;-70
2024/01/29 12:47:21;;;;;;;19.77;10.70;;;9.80;99.90;;;;;;5050637;28;20062;-70
2024/01/29 12:49:47;;;;;;;19.33;11.02;;;9.80;99.90;;;;;;5039814;28;20588;-71